createdAt,value
2023-02-02T07:52:19.927Z,4.56
2023-02-02T07:53:20.549Z,4.69
2023-02-02T07:54:20.569Z,4.68
2023-02-02T07:55:20.602Z,4.68
2023-02-02T07:56:20.653Z,4.7
2023-02-02T07:57:20.651Z,4.69
2023-02-02T07:58:20.698Z,4.69
2023-02-02T07:59:20.748Z,4.69
2023-02-02T08:00:20.776Z,4.71
2023-02-02T08:01:20.818Z,4.71
2023-02-02T08:02:20.813Z,4.7
2023-02-02T08:03:20.845Z,4.69
2023-02-02T08:04:20.862Z,4.7
2023-02-02T08:05:20.889Z,4.75
2023-02-02T08:06:20.933Z,4.74
2023-02-02T08:07:20.970Z,4.73
2023-02-02T08:08:21.010Z,4.73
2023-02-02T08:09:21.028Z,4.75
2023-02-02T08:10:21.061Z,4.74
2023-02-02T08:11:21.082Z,4.72
2023-02-02T08:12:21.116Z,4.72
2023-02-02T08:13:21.186Z,4.71
2023-02-02T08:14:21.187Z,4.7
2023-02-02T08:15:21.248Z,4.69
2023-02-02T08:16:21.314Z,4.67
2023-02-02T08:17:21.292Z,4.66
2023-02-02T08:18:21.332Z,4.66
2023-02-02T08:19:21.353Z,4.66
2023-02-02T08:20:21.388Z,4.62
2023-02-02T08:21:21.424Z,4.63
2023-02-02T08:22:21.459Z,4.61
2023-02-02T08:23:21.500Z,4.61
2023-02-02T08:24:21.519Z,4.63
2023-02-02T08:25:21.594Z,4.62
2023-02-02T08:26:21.672Z,4.62
2023-02-02T08:27:21.627Z,4.62
2023-02-02T08:28:21.672Z,4.61
2023-02-02T08:29:21.703Z,4.59
2023-02-02T08:30:21.788Z,4.6
2023-02-02T08:31:21.865Z,4.58
2023-02-02T08:32:21.830Z,4.59
2023-02-02T08:33:21.857Z,4.6
2023-02-02T08:34:21.898Z,4.62
2023-02-02T08:35:22.096Z,4.66
2023-02-02T08:36:21.964Z,4.69
2023-02-02T08:37:22.003Z,4.75
2023-02-02T08:38:22.025Z,4.73
2023-02-02T08:39:22.062Z,4.73
2023-02-02T08:40:22.129Z,4.72
2023-02-02T08:41:22.128Z,4.73
2023-02-02T08:42:22.156Z,4.73
2023-02-02T08:43:22.200Z,4.72
2023-02-02T08:44:22.223Z,4.73
2023-02-02T08:46:01.759Z,4.75
2023-02-02T08:46:22.658Z,4.79
2023-02-02T08:47:22.327Z,4.77
2023-02-02T08:48:22.361Z,4.77
2023-02-02T08:49:22.399Z,4.75
2023-02-02T08:50:22.531Z,4.77
2023-02-02T08:51:22.454Z,4.78
2023-02-02T08:52:24.252Z,4.79
2023-02-02T08:53:22.520Z,4.76
2023-02-02T08:54:22.554Z,4.79
2023-02-02T08:55:22.883Z,4.78
2023-02-02T08:56:22.620Z,4.77
2023-02-02T08:57:22.665Z,4.77
2023-02-02T08:58:22.703Z,4.78
2023-02-02T08:59:22.730Z,4.78
2023-02-02T09:00:22.825Z,4.81
2023-02-02T09:01:22.877Z,4.81
2023-02-02T09:02:22.912Z,4.83
2023-02-02T09:03:22.885Z,4.84
2023-02-02T09:04:22.931Z,4.87
2023-02-02T09:05:23.424Z,4.85
2023-02-02T09:06:22.980Z,4.85
2023-02-02T09:07:23.027Z,4.88
2023-02-02T09:08:23.092Z,4.89
2023-02-02T09:09:23.084Z,4.88
2023-02-02T09:10:23.111Z,4.86
2023-02-02T09:11:23.162Z,4.88
2023-02-02T09:12:23.195Z,4.88
2023-02-02T09:13:23.384Z,4.92
2023-02-02T09:14:23.254Z,4.93
2023-02-02T09:15:23.638Z,4.94
2023-02-02T09:16:23.356Z,4.97
2023-02-02T09:17:23.379Z,4.99
2023-02-02T09:18:23.391Z,4.98
2023-02-02T09:19:23.427Z,4.99
2023-02-02T09:20:23.456Z,4.98
2023-02-02T09:21:23.487Z,5
2023-02-02T09:22:23.549Z,4.99
2023-02-02T09:23:23.543Z,5.02
2023-02-02T09:24:23.585Z,5.04
2023-02-02T09:25:24.013Z,5.08
2023-02-02T09:26:23.717Z,5.1
2023-02-02T09:27:23.689Z,5.12
2023-02-02T09:28:23.712Z,5.15
2023-02-02T09:29:23.751Z,5.14
2023-02-02T09:30:23.783Z,5.15
2023-02-02T09:31:23.860Z,5.15
2023-02-02T09:32:23.861Z,5.14
2023-02-02T09:33:23.895Z,5.14
2023-02-02T09:34:23.932Z,5.14
2023-02-02T09:35:24.216Z,5.15
2023-02-02T09:36:23.997Z,5.13
2023-02-02T09:37:24.028Z,5.13
2023-02-02T09:38:24.081Z,5.2
2023-02-02T09:39:24.100Z,5.2
2023-02-02T09:40:24.130Z,5.18
2023-02-02T09:41:24.170Z,5.2
2023-02-02T09:42:24.200Z,5.18
2023-02-02T09:43:24.251Z,5.23
2023-02-02T09:44:24.295Z,5.25
2023-02-02T09:45:24.654Z,5.24
2023-02-02T09:46:25.914Z,5.21
2023-02-02T09:47:24.389Z,5.25
2023-02-02T09:48:24.457Z,5.26
2023-02-02T09:49:24.446Z,5.26
2023-02-02T09:50:24.485Z,5.23
2023-02-02T09:51:24.530Z,5.28
2023-02-02T09:52:24.552Z,5.28
2023-02-02T09:53:24.610Z,5.28
2023-02-02T09:54:24.617Z,5.27
2023-02-02T09:55:24.998Z,5.25
2023-02-02T09:56:24.744Z,5.25
2023-02-02T09:57:24.711Z,5.21
2023-02-02T09:58:24.739Z,5.17
2023-02-02T09:59:24.843Z,5.13
2023-02-02T10:00:24.819Z,5.14
2023-02-02T10:01:24.886Z,5.15
2023-02-02T10:02:24.874Z,5.17
2023-02-02T10:03:24.927Z,5.24
2023-02-02T10:04:24.941Z,5.24
2023-02-02T10:05:25.194Z,5.24
2023-02-02T10:06:25.036Z,5.27
2023-02-02T10:07:25.060Z,5.27
2023-02-02T10:08:34.254Z,5.34
2023-02-02T10:09:25.144Z,5.36
2023-02-02T10:10:25.151Z,5.36
2023-02-02T10:11:25.197Z,5.35
2023-02-02T10:12:25.227Z,5.34
2023-02-02T10:13:25.262Z,5.34
2023-02-02T10:14:25.322Z,5.36
2023-02-02T10:15:25.740Z,5.4
2023-02-02T10:16:25.559Z,5.38
2023-02-02T10:17:25.432Z,5.37
2023-02-02T10:18:25.447Z,5.4
2023-02-02T10:19:25.468Z,5.45
2023-02-02T10:20:25.925Z,5.45
2023-02-02T10:21:25.541Z,5.46
2023-02-02T10:22:25.583Z,5.48
2023-02-02T10:23:25.614Z,5.43
2023-02-02T10:24:25.643Z,5.4
2023-02-02T10:25:25.677Z,5.37
2023-02-02T10:26:25.758Z,5.34
2023-02-02T10:27:25.756Z,5.32
2023-02-02T10:28:25.779Z,5.25
2023-02-02T10:29:25.797Z,5.24
2023-02-02T10:30:26.169Z,5.29
2023-02-02T10:31:26.007Z,5.3
2023-02-02T10:32:25.918Z,5.31
2023-02-02T10:33:25.949Z,5.34
2023-02-02T10:34:25.981Z,5.37
2023-02-02T10:35:26.015Z,5.36
2023-02-02T10:36:26.074Z,5.4
2023-02-02T10:37:26.113Z,5.44
2023-02-02T10:38:26.119Z,5.46
2023-02-02T10:39:26.163Z,5.49
2023-02-02T10:40:26.533Z,5.5
2023-02-02T10:41:26.222Z,5.47
2023-02-02T10:42:26.262Z,5.45
2023-02-02T10:43:26.302Z,5.44
2023-02-02T10:44:26.355Z,5.41
2023-02-02T10:45:26.397Z,5.45
2023-02-02T10:46:26.526Z,5.44
2023-02-02T10:47:26.427Z,5.45
2023-02-02T10:48:26.453Z,5.51
2023-02-02T10:49:26.485Z,5.59
2023-02-02T10:50:27.013Z,5.61
2023-02-02T10:51:26.561Z,5.57
2023-02-02T10:52:26.687Z,5.56
2023-02-02T10:53:26.616Z,5.61
2023-02-02T10:54:26.648Z,5.62
2023-02-02T10:55:26.680Z,5.55
2023-02-02T10:56:26.710Z,5.55
2023-02-02T10:57:26.740Z,5.53
2023-02-02T10:58:26.765Z,5.49
2023-02-02T10:59:26.817Z,5.49
2023-02-02T11:00:27.091Z,5.52
2023-02-02T11:01:26.904Z,5.55
2023-02-02T11:02:26.933Z,5.59
2023-02-02T11:03:26.930Z,5.6
2023-02-02T11:04:26.959Z,5.66
2023-02-02T11:05:27.019Z,5.67
2023-02-02T11:06:27.042Z,5.64
2023-02-02T11:07:27.067Z,5.67
2023-02-02T11:08:27.096Z,5.71
2023-02-02T11:09:27.131Z,5.7
2023-02-02T11:10:27.431Z,5.66
2023-02-02T11:11:27.211Z,5.63
2023-02-02T11:12:27.231Z,5.62
2023-02-02T11:13:27.255Z,5.61
2023-02-02T11:14:27.287Z,5.6
2023-02-02T11:15:27.343Z,5.59
2023-02-02T11:16:35.474Z,5.64
2023-02-02T11:17:27.389Z,5.57
2023-02-02T11:18:27.431Z,5.56
2023-02-02T11:19:27.463Z,5.56
2023-02-02T11:20:27.510Z,5.53
2023-02-02T11:21:27.518Z,5.53
2023-02-02T11:22:27.560Z,5.54
2023-02-02T11:23:27.594Z,5.55
2023-02-02T11:24:27.638Z,5.51
2023-02-02T11:25:27.650Z,5.54
2023-02-02T11:26:27.725Z,5.53
2023-02-02T11:27:27.735Z,5.45
2023-02-02T11:28:27.753Z,5.46
2023-02-02T11:29:27.788Z,5.46
2023-02-02T11:30:27.808Z,5.49
2023-02-02T11:31:27.978Z,5.5
2023-02-02T11:32:27.997Z,5.51
2023-02-02T11:33:27.924Z,5.5
2023-02-02T11:34:27.948Z,5.5
2023-02-02T11:35:27.973Z,5.48
2023-02-02T11:36:28.002Z,5.49
2023-02-02T11:37:28.082Z,5.5
2023-02-02T11:38:28.070Z,5.5
2023-02-02T11:39:28.106Z,5.46
2023-02-02T11:40:28.611Z,5.45
2023-02-02T11:41:28.169Z,5.44
2023-02-02T11:42:28.238Z,5.44
2023-02-02T11:43:28.237Z,5.46
2023-02-02T11:44:28.269Z,5.4
2023-02-02T11:45:28.308Z,5.39
2023-02-02T11:46:28.352Z,5.39
2023-02-02T11:47:28.390Z,5.4
2023-02-02T11:48:28.413Z,5.38
2023-02-02T11:49:28.443Z,5.39
2023-02-02T11:50:28.478Z,5.38
2023-02-02T11:51:28.512Z,5.37
2023-02-02T11:52:30.628Z,5.35
2023-02-02T11:53:28.579Z,5.35
2023-02-02T11:54:28.620Z,5.34
2023-02-02T11:55:28.653Z,5.37
2023-02-02T11:56:28.709Z,5.36
2023-02-02T11:57:28.709Z,5.34
2023-02-02T11:58:28.748Z,5.33
2023-02-02T11:59:28.767Z,5.33
2023-02-02T12:00:28.821Z,5.33
2023-02-02T12:01:28.852Z,5.32
2023-02-02T12:02:28.897Z,5.31
2023-02-02T12:03:28.924Z,5.3
2023-02-02T12:04:30.897Z,5.35
2023-02-02T12:05:28.979Z,5.37
2023-02-02T12:06:29.013Z,5.4
2023-02-02T12:07:29.048Z,5.47
2023-02-02T12:08:29.094Z,5.51
2023-02-02T12:09:29.115Z,5.53
2023-02-02T12:10:31.422Z,5.55
2023-02-02T12:11:29.178Z,5.57
2023-02-02T12:12:29.208Z,5.58
2023-02-02T12:13:29.232Z,5.59
2023-02-02T12:14:29.275Z,5.57
2023-02-02T12:15:29.314Z,5.55
2023-02-02T12:16:29.365Z,5.53
2023-02-02T12:17:29.369Z,5.61
2023-02-02T12:18:29.408Z,5.6
2023-02-02T12:19:29.442Z,5.57
2023-02-02T12:20:29.477Z,5.59
2023-02-02T12:21:29.518Z,5.52
2023-02-02T12:22:29.558Z,5.52
2023-02-02T12:23:29.587Z,5.49
2023-02-02T12:24:29.620Z,5.45
2023-02-02T12:25:29.664Z,5.41
2023-02-02T12:26:29.783Z,5.43
2023-02-02T12:27:29.732Z,5.44
2023-02-02T12:28:29.768Z,5.42
2023-02-02T12:29:29.799Z,5.48
2023-02-02T12:30:29.851Z,5.45
2023-02-02T12:31:29.874Z,5.47
2023-02-02T12:32:29.888Z,5.47
2023-02-02T12:33:29.925Z,5.4
2023-02-02T12:34:29.960Z,5.38
2023-02-02T12:35:30.022Z,5.34
2023-02-02T12:36:30.067Z,5.34
2023-02-02T12:37:30.062Z,5.36
2023-02-02T12:38:30.091Z,5.36
2023-02-02T12:39:30.130Z,5.42
2023-02-02T12:40:30.174Z,5.48
2023-02-02T12:41:30.208Z,5.62
2023-02-02T12:42:30.231Z,5.65
2023-02-02T12:43:30.274Z,5.67
2023-02-02T12:44:30.314Z,5.69
2023-02-02T12:45:30.383Z,5.71
2023-02-02T12:46:30.420Z,5.71
2023-02-02T12:47:30.421Z,5.7
2023-02-02T12:48:30.450Z,5.68
2023-02-02T12:49:30.480Z,5.61
2023-02-02T12:50:30.524Z,5.58
2023-02-02T12:51:30.558Z,5.53
2023-02-02T12:52:30.593Z,5.53
2023-02-02T12:53:30.618Z,5.53
2023-02-02T12:54:32.894Z,5.5
2023-02-02T12:55:30.693Z,5.49
2023-02-02T12:56:30.725Z,5.44
2023-02-02T12:57:30.755Z,5.43
2023-02-02T12:58:30.789Z,5.43
2023-02-02T12:59:30.825Z,5.51
2023-02-02T13:00:30.844Z,5.56
2023-02-02T13:01:30.988Z,5.57
2023-02-02T13:02:30.944Z,5.66
2023-02-02T13:03:30.961Z,5.7
2023-02-02T13:05:02.499Z,5.8
2023-02-02T13:05:31.023Z,5.82
2023-02-02T13:06:31.042Z,5.92
2023-02-02T13:07:31.112Z,5.99
2023-02-02T13:08:31.107Z,6.01
2023-02-02T13:09:31.149Z,5.99
2023-02-02T13:10:31.180Z,5.95
2023-02-02T13:11:31.207Z,6.05
2023-02-02T13:12:31.247Z,6.13
2023-02-02T13:13:31.316Z,6.18
2023-02-02T13:14:31.325Z,6.23
2023-02-02T13:15:31.351Z,6.27
2023-02-02T13:16:31.469Z,6.31
2023-02-02T13:17:31.428Z,6.29
2023-02-02T13:18:31.463Z,6.24
2023-02-02T13:19:31.493Z,6.19
2023-02-02T13:20:31.532Z,6.19
2023-02-02T13:21:31.559Z,6.18
2023-02-02T13:22:31.605Z,6.2
2023-02-02T13:23:31.688Z,6.19
2023-02-02T13:24:31.691Z,6.26
2023-02-02T13:25:31.729Z,6.23
2023-02-02T13:26:31.854Z,6.2
2023-02-02T13:27:31.784Z,6.17
2023-02-02T13:28:31.826Z,6.19
2023-02-02T13:29:31.842Z,6.19
2023-02-02T13:30:31.984Z,6.17
2023-02-02T13:31:31.968Z,6.16
2023-02-02T13:32:31.942Z,6.16
2023-02-02T13:33:31.983Z,6.12
2023-02-02T13:34:32.047Z,6.1
2023-02-02T13:35:32.049Z,6.08
2023-02-02T13:36:32.083Z,6.06
2023-02-02T13:37:32.140Z,6.03
2023-02-02T13:38:32.158Z,5.96
2023-02-02T13:39:32.186Z,5.95
2023-02-02T13:40:32.250Z,5.94
2023-02-02T13:41:32.271Z,5.9
2023-02-02T13:42:32.297Z,5.9
2023-02-02T13:43:32.337Z,5.86
2023-02-02T13:44:32.362Z,5.76
2023-02-02T13:45:32.399Z,5.73
2023-02-02T13:46:32.463Z,5.65
2023-02-02T13:47:32.473Z,5.6
2023-02-02T13:48:32.548Z,5.6
2023-02-02T13:49:32.589Z,5.6
2023-02-02T13:50:32.570Z,5.57
2023-02-02T13:51:32.598Z,5.49
2023-02-02T13:52:32.633Z,5.46
2023-02-02T13:53:32.664Z,5.4
2023-02-02T13:54:32.701Z,5.38
2023-02-02T13:55:32.741Z,5.39
2023-02-02T13:56:32.761Z,5.37
2023-02-02T13:57:32.798Z,5.33
2023-02-02T13:58:32.863Z,5.35
2023-02-02T13:59:32.864Z,5.35
2023-02-02T14:00:32.891Z,5.3
2023-02-02T14:01:32.993Z,5.25
2023-02-02T14:02:33.123Z,5.26
2023-02-02T14:03:33.018Z,5.26
2023-02-02T14:04:33.026Z,5.26
2023-02-02T14:05:33.071Z,5.28
2023-02-02T14:06:33.107Z,5.3
2023-02-02T14:07:33.173Z,5.31
2023-02-02T14:08:33.177Z,5.32
2023-02-02T14:09:33.204Z,5.32
2023-02-02T14:10:33.231Z,5.33
2023-02-02T14:11:33.287Z,5.33
2023-02-02T14:12:33.303Z,5.33
2023-02-02T14:13:33.374Z,5.32
2023-02-02T14:14:33.433Z,5.33
2023-02-02T14:15:33.463Z,5.33
2023-02-02T14:16:33.443Z,5.33
2023-02-02T14:17:33.474Z,5.32
2023-02-02T14:18:33.512Z,5.31
2023-02-02T14:19:33.556Z,5.29
2023-02-02T14:20:33.577Z,5.27
2023-02-02T14:21:33.632Z,5.21
2023-02-02T14:22:33.640Z,5.19
2023-02-02T14:23:33.677Z,5.18
2023-02-02T14:24:33.730Z,5.14
2023-02-02T14:25:33.830Z,5.07
2023-02-02T14:26:33.892Z,5.05
2023-02-02T14:27:33.899Z,5.03
2023-02-02T14:28:33.837Z,5
2023-02-02T14:29:33.877Z,5.01
2023-02-02T14:30:34.002Z,5.02
2023-02-02T14:31:34.090Z,4.97
2023-02-02T14:32:33.991Z,4.95
2023-02-02T14:33:34.013Z,4.91
2023-02-02T14:34:34.057Z,4.91
2023-02-02T14:35:34.092Z,4.9
2023-02-02T14:36:34.131Z,4.87
2023-02-02T14:37:34.161Z,4.79
2023-02-02T14:38:34.202Z,4.7
2023-02-02T14:39:34.241Z,4.61
2023-02-02T14:40:34.254Z,4.6
2023-02-02T14:41:34.311Z,4.58
2023-02-02T14:42:34.323Z,4.55
2023-02-02T14:43:34.351Z,4.54
2023-02-02T14:44:34.385Z,4.55
2023-02-02T14:45:34.417Z,4.57
2023-02-02T14:46:34.496Z,4.51
2023-02-02T14:47:34.479Z,4.51
2023-02-02T14:48:34.521Z,4.49
2023-02-02T14:49:34.545Z,4.49
2023-02-02T14:50:34.601Z,4.43
2023-02-02T14:51:34.666Z,4.43
2023-02-02T14:52:34.660Z,4.43
2023-02-02T14:53:34.682Z,4.39
2023-02-02T14:54:34.723Z,4.38
2023-02-02T14:55:34.758Z,4.37
2023-02-02T14:56:34.794Z,4.35
2023-02-02T14:57:34.870Z,4.37
2023-02-02T14:58:34.944Z,4.34
2023-02-02T14:59:34.902Z,4.34
2023-02-02T15:00:34.939Z,4.33
2023-02-02T15:01:35.026Z,4.29
2023-02-02T15:02:35.101Z,4.28
2023-02-02T15:03:35.066Z,4.27
2023-02-02T15:04:35.069Z,4.25
2023-02-02T15:05:35.103Z,4.22
2023-02-02T15:06:35.153Z,4.23
2023-02-02T15:07:35.182Z,4.23
2023-02-02T15:08:35.241Z,4.22
2023-02-02T15:09:35.254Z,4.24
2023-02-02T15:10:35.325Z,4.17
2023-02-02T15:11:35.322Z,4.16
2023-02-02T15:12:35.361Z,4.16
2023-02-02T15:13:35.395Z,4.15
2023-02-02T15:14:35.442Z,4.11
2023-02-02T15:15:35.504Z,4.09
2023-02-02T15:16:35.498Z,4.06
2023-02-02T15:17:35.530Z,4.05
2023-02-02T15:18:35.576Z,4
2023-02-02T15:19:35.604Z,3.99
2023-02-02T15:20:35.644Z,4
2023-02-02T15:21:35.711Z,4.04
2023-02-02T15:22:35.700Z,4.03
2023-02-02T15:23:35.735Z,4
2023-02-02T15:24:35.758Z,3.96
2023-02-02T15:25:35.807Z,3.94
2023-02-02T15:26:35.915Z,3.93
2023-02-02T15:27:38.728Z,3.92
2023-02-02T15:28:35.916Z,3.92
2023-02-02T15:29:35.953Z,3.86
2023-02-02T15:30:36.055Z,3.83
2023-02-02T15:31:36.032Z,3.81
2023-02-02T15:32:36.053Z,3.8
2023-02-02T15:33:36.135Z,3.81
2023-02-02T15:34:36.124Z,3.78
2023-02-02T15:35:38.222Z,3.75
2023-02-02T15:36:36.201Z,3.75
2023-02-02T15:37:36.231Z,3.76
2023-02-02T15:38:36.276Z,3.75
2023-02-02T15:39:36.306Z,3.69
2023-02-02T15:40:36.352Z,3.68
2023-02-02T15:41:36.396Z,3.65
2023-02-02T15:42:36.408Z,3.62
2023-02-02T15:43:36.444Z,3.63
2023-02-02T15:44:36.482Z,3.59
2023-02-02T15:45:36.527Z,3.59
2023-02-02T15:46:36.628Z,3.58
2023-02-02T15:47:36.603Z,3.58
2023-02-02T15:48:36.626Z,3.58
2023-02-02T15:49:36.657Z,3.54
2023-02-02T15:50:36.731Z,3.55
2023-02-02T15:51:36.730Z,3.54
2023-02-02T15:52:36.768Z,3.51
2023-02-02T15:53:36.801Z,3.49
2023-02-02T15:54:36.836Z,3.49
2023-02-02T15:55:36.873Z,3.49
2023-02-02T15:56:37.041Z,3.47
2023-02-02T15:57:36.940Z,3.44
2023-02-02T15:58:36.976Z,3.43
2023-02-02T15:59:37.010Z,3.43
2023-02-02T16:00:37.097Z,3.45
2023-02-02T16:01:37.178Z,3.47
2023-02-02T16:02:37.104Z,3.41
2023-02-02T16:03:37.139Z,3.38
2023-02-02T16:04:37.274Z,3.38
2023-02-02T16:05:37.228Z,3.35
2023-02-02T16:06:37.261Z,3.35
2023-02-02T16:07:37.287Z,3.38
2023-02-02T16:08:37.311Z,3.38
2023-02-02T16:09:37.346Z,3.37
2023-02-02T16:10:37.379Z,3.39
2023-02-02T16:11:37.414Z,3.41
2023-02-02T16:12:37.444Z,3.36
2023-02-02T16:13:37.527Z,3.33
2023-02-02T16:14:37.530Z,3.35
2023-02-02T16:15:37.562Z,3.33
2023-02-02T16:16:37.680Z,3.34
2023-02-02T16:17:37.632Z,3.36
2023-02-02T16:18:37.678Z,3.31
2023-02-02T16:19:37.697Z,3.28
2023-02-02T16:20:37.747Z,3.28
2023-02-02T16:21:37.770Z,3.3
2023-02-02T16:22:37.799Z,3.28
2023-02-02T16:23:37.831Z,3.29
2023-02-02T16:24:37.858Z,3.27
2023-02-02T16:25:37.933Z,3.24
2023-02-02T16:26:38.003Z,3.23
2023-02-02T16:27:37.974Z,3.23
2023-02-02T16:28:38.006Z,3.24
2023-02-02T16:29:38.036Z,3.24
2023-02-02T16:30:38.198Z,3.2
2023-02-02T16:31:38.130Z,3.19
2023-02-02T16:32:38.140Z,3.18
2023-02-02T16:33:38.180Z,3.16
2023-02-02T16:34:38.211Z,3.19
2023-02-02T16:35:38.254Z,3.15
2023-02-02T16:36:38.289Z,3.17
2023-02-02T16:37:38.327Z,3.18
2023-02-02T16:38:38.368Z,3.15
2023-02-02T16:39:38.401Z,3.15
2023-02-02T16:40:38.436Z,3.15
2023-02-02T16:41:38.521Z,3.08
2023-02-02T16:42:38.502Z,3.06
2023-02-02T16:43:38.532Z,3.06
2023-02-02T16:44:38.571Z,3.05
2023-02-02T16:45:38.636Z,3.05
2023-02-02T16:46:38.663Z,3.05
2023-02-02T16:47:38.726Z,3.01
2023-02-02T16:48:38.728Z,2.99
2023-02-02T16:49:38.725Z,2.98
2023-02-02T16:50:38.763Z,2.96
2023-02-02T16:51:38.791Z,2.95
2023-02-02T16:52:38.832Z,2.96
2023-02-02T16:53:38.863Z,2.99
2023-02-02T16:54:38.895Z,3.02
2023-02-02T16:55:50.651Z,2.97
2023-02-02T16:56:38.954Z,2.96
2023-02-02T16:57:38.996Z,2.96
2023-02-02T16:58:39.096Z,3
2023-02-02T16:59:39.056Z,2.98
2023-02-02T17:00:39.097Z,2.98
2023-02-02T17:01:39.175Z,2.91
2023-02-02T17:02:39.264Z,2.92
2023-02-02T17:03:39.196Z,2.92
2023-02-02T17:04:39.222Z,2.93
2023-02-02T17:05:39.265Z,2.93
2023-02-02T17:06:51.978Z,2.9
2023-02-02T17:07:39.334Z,2.87
2023-02-02T17:08:39.394Z,2.86
2023-02-02T17:09:39.418Z,2.87
2023-02-02T17:10:39.516Z,2.9
2023-02-02T17:11:39.535Z,2.92
2023-02-02T17:12:39.520Z,2.94
2023-02-02T17:13:39.559Z,2.9
2023-02-02T17:14:39.595Z,2.89
2023-02-02T17:15:39.644Z,2.88
2023-02-02T17:16:39.706Z,2.89
2023-02-02T17:17:39.705Z,2.89
2023-02-02T17:18:39.792Z,2.9
2023-02-02T17:19:39.775Z,2.85
2023-02-02T17:20:39.805Z,2.81
2023-02-02T17:21:39.841Z,2.79
2023-02-02T17:22:39.877Z,2.79
2023-02-02T17:23:39.904Z,2.77
2023-02-02T17:24:39.978Z,2.78
2023-02-02T17:25:39.972Z,2.82
2023-02-02T17:26:40.079Z,2.84
2023-02-02T17:27:40.098Z,2.84
2023-02-02T17:28:40.073Z,2.87
2023-02-02T17:29:40.111Z,2.83
2023-02-02T17:30:40.284Z,2.82
2023-02-02T17:31:40.349Z,2.84
2023-02-02T17:32:40.211Z,2.85
2023-02-02T17:33:40.248Z,2.86
2023-02-02T17:34:40.287Z,2.85
2023-02-02T17:35:53.592Z,2.85
2023-02-02T17:36:40.357Z,2.76
2023-02-02T17:37:40.394Z,2.75
2023-02-02T17:38:40.426Z,2.74
2023-02-02T17:39:40.464Z,2.74
2023-02-02T17:40:40.507Z,2.75
2023-02-02T17:41:40.536Z,2.76
2023-02-02T17:42:40.561Z,2.75
2023-02-02T17:43:40.592Z,2.75
2023-02-02T17:44:40.640Z,2.73
2023-02-02T17:45:40.676Z,2.69
2023-02-02T17:46:40.820Z,2.71
2023-02-02T17:47:40.731Z,2.72
2023-02-02T17:48:40.767Z,2.67
2023-02-02T17:49:40.804Z,2.68
2023-02-02T17:50:40.828Z,2.68
2023-02-02T17:51:40.906Z,2.68
2023-02-02T17:52:40.903Z,2.69
2023-02-02T17:53:40.954Z,2.68
2023-02-02T17:54:41.045Z,2.69
2023-02-02T17:55:41.007Z,2.7
2023-02-02T17:56:41.054Z,2.67
2023-02-02T17:57:41.079Z,2.64
2023-02-02T17:58:41.104Z,2.65
2023-02-02T17:59:41.142Z,2.66
2023-02-02T18:00:41.178Z,2.67
2023-02-02T18:01:41.273Z,2.62
2023-02-02T18:02:41.325Z,2.62
2023-02-02T18:03:41.282Z,2.61
2023-02-02T18:04:41.313Z,2.62
2023-02-02T18:05:43.420Z,2.61
2023-02-02T18:06:41.396Z,2.6
2023-02-02T18:07:41.425Z,2.6
2023-02-02T18:08:41.464Z,2.55
2023-02-02T18:09:41.494Z,2.59
2023-02-02T18:10:41.532Z,2.58
2023-02-02T18:11:42.674Z,2.57
2023-02-02T18:12:41.602Z,2.53
2023-02-02T18:13:41.629Z,2.53
2023-02-02T18:14:41.673Z,2.5
2023-02-02T18:15:41.735Z,2.51
2023-02-02T18:16:41.745Z,2.47
2023-02-02T18:17:41.788Z,2.48
2023-02-02T18:18:41.821Z,2.45
2023-02-02T18:19:41.850Z,2.47
2023-02-02T18:20:41.895Z,2.49
2023-02-02T18:21:41.920Z,2.47
2023-02-02T18:22:41.957Z,2.47
2023-02-02T18:23:42.008Z,2.47
2023-02-02T18:24:42.030Z,2.47
2023-02-02T18:25:42.085Z,2.48
2023-02-02T18:26:42.110Z,2.49
2023-02-02T18:27:42.123Z,2.44
2023-02-02T18:28:42.160Z,2.41
2023-02-02T18:29:42.204Z,2.41
2023-02-02T18:30:42.316Z,2.39
2023-02-02T18:31:42.563Z,2.39
2023-02-02T18:32:42.321Z,2.4
2023-02-02T18:33:42.351Z,2.37
2023-02-02T18:34:42.384Z,2.36
2023-02-02T18:35:42.471Z,2.32
2023-02-02T18:36:42.475Z,2.31
2023-02-02T18:37:42.500Z,2.3
2023-02-02T18:38:42.530Z,2.3
2023-02-02T18:39:42.559Z,2.28
2023-02-02T18:40:42.591Z,2.3
2023-02-02T18:41:42.647Z,2.3
2023-02-02T18:42:42.653Z,2.31
2023-02-02T18:43:42.695Z,2.31
2023-02-02T18:44:42.719Z,2.3
2023-02-02T18:45:42.766Z,2.31
2023-02-02T18:46:43.119Z,2.32
2023-02-02T18:47:42.834Z,2.3
2023-02-02T18:48:42.861Z,2.3
2023-02-02T18:49:42.916Z,2.31
2023-02-02T18:50:42.939Z,2.31
2023-02-02T18:51:42.964Z,2.31
2023-02-02T18:52:43.002Z,2.29
2023-02-02T18:53:43.037Z,2.26
2023-02-02T18:54:43.071Z,2.27
2023-02-02T18:55:43.109Z,2.25
2023-02-02T18:56:43.152Z,2.26
2023-02-02T18:57:43.183Z,2.26
2023-02-02T18:58:43.231Z,2.27
2023-02-02T18:59:43.252Z,2.26
2023-02-02T19:00:43.289Z,2.27
2023-02-02T19:01:43.364Z,2.28
2023-02-02T19:02:43.364Z,2.28
2023-02-02T19:03:43.467Z,2.27
2023-02-02T19:04:43.439Z,2.23
2023-02-02T19:05:43.474Z,2.21
2023-02-02T19:06:43.511Z,2.23
2023-02-02T19:07:43.544Z,2.21
2023-02-02T19:08:43.585Z,2.22
2023-02-02T19:09:43.624Z,2.23
2023-02-02T19:10:43.655Z,2.23
2023-02-02T19:11:43.691Z,2.22
2023-02-02T19:12:43.739Z,2.17
2023-02-02T19:13:43.779Z,2.17
2023-02-02T19:14:43.815Z,2.18
2023-02-02T19:15:43.903Z,2.18
2023-02-02T19:16:43.895Z,2.16
2023-02-02T19:17:43.926Z,2.15
2023-02-02T19:18:43.962Z,2.15
2023-02-02T19:19:44.009Z,2.16
2023-02-02T19:20:44.078Z,2.17
2023-02-02T19:21:44.074Z,2.16
2023-02-02T19:22:44.108Z,2.15
2023-02-02T19:23:44.143Z,2.15
2023-02-02T19:24:44.180Z,2.11
2023-02-02T19:25:46.320Z,2.1
2023-02-02T19:26:44.270Z,2.09
2023-02-02T19:27:44.315Z,2.11
2023-02-02T19:28:44.334Z,2.11
2023-02-02T19:29:44.369Z,2.11
2023-02-02T19:30:44.441Z,2.1
2023-02-02T19:31:44.529Z,2.1
2023-02-02T19:32:44.473Z,2.1
2023-02-02T19:33:44.519Z,2.11
2023-02-02T19:34:44.552Z,2.11
2023-02-02T19:35:44.588Z,2.11
2023-02-02T19:36:44.640Z,2.11
2023-02-02T19:37:44.657Z,2.13
2023-02-02T19:38:44.700Z,2.14
2023-02-02T19:39:44.733Z,2.14
2023-02-02T19:40:44.783Z,2.14
2023-02-02T19:41:44.824Z,2.16
2023-02-02T19:42:44.868Z,2.17
2023-02-02T19:43:44.876Z,2.16
2023-02-02T19:44:44.911Z,2.15
2023-02-02T19:45:44.951Z,2.12
2023-02-02T19:46:45.095Z,2.14
2023-02-02T19:47:45.031Z,2.13
2023-02-02T19:48:45.065Z,2.09
2023-02-02T19:49:45.097Z,2.09
2023-02-02T19:50:45.128Z,2.1
2023-02-02T19:51:45.167Z,2.09
2023-02-02T19:52:45.197Z,2.1
2023-02-02T19:53:45.227Z,2.11
2023-02-02T19:54:45.350Z,2.11
2023-02-02T19:55:45.305Z,2.13
2023-02-02T19:56:45.342Z,2.13
2023-02-02T19:57:45.398Z,2.13
2023-02-02T19:58:45.408Z,2.14
2023-02-02T19:59:45.455Z,2.13
2023-02-02T20:00:45.505Z,2.13
2023-02-02T20:01:45.633Z,2.14
2023-02-02T20:02:45.609Z,2.14
2023-02-02T20:03:45.588Z,2.14
2023-02-02T20:04:45.631Z,2.09
2023-02-02T20:05:45.691Z,2.09
2023-02-02T20:06:58.225Z,2.09
2023-02-02T20:07:45.746Z,2.08
2023-02-02T20:08:45.779Z,2.09
2023-02-02T20:09:45.830Z,2.11
2023-02-02T20:10:45.848Z,2.1
2023-02-02T20:11:45.879Z,2.11
2023-02-02T20:12:45.912Z,2.11
2023-02-02T20:13:45.948Z,2.13
2023-02-02T20:14:45.984Z,2.13
2023-02-02T20:15:46.020Z,2.13
2023-02-02T20:16:46.116Z,2.13
2023-02-02T20:17:46.081Z,2.12
2023-02-02T20:18:46.119Z,2.11
2023-02-02T20:19:46.191Z,2.11
2023-02-02T20:20:46.205Z,2.11
2023-02-02T20:21:46.235Z,2.13
2023-02-02T20:22:46.267Z,2.17
2023-02-02T20:23:46.305Z,2.15
2023-02-02T20:24:46.357Z,2.12
2023-02-02T20:25:46.380Z,2.12
2023-02-02T20:26:46.482Z,2.12
2023-02-02T20:27:46.447Z,2.13
2023-02-02T20:28:46.499Z,2.13
2023-02-02T20:29:46.537Z,2.15
2023-02-02T20:30:46.578Z,2.12
2023-02-02T20:31:46.658Z,2.13
2023-02-02T20:32:46.641Z,2.14
2023-02-02T20:33:46.675Z,2.13
2023-02-02T20:34:46.732Z,2.13
2023-02-02T20:35:46.752Z,2.14
2023-02-02T20:36:46.790Z,2.14
2023-02-02T20:37:46.821Z,2.13
2023-02-02T20:38:46.865Z,2.13
2023-02-02T20:39:46.913Z,2.13
2023-02-02T20:40:46.943Z,2.14
2023-02-02T20:41:46.967Z,2.14
2023-02-02T20:42:47.007Z,2.13
2023-02-02T20:43:47.042Z,2.14
2023-02-02T20:44:47.081Z,2.15
2023-02-02T20:45:47.211Z,2.19
2023-02-02T20:46:47.157Z,2.21
2023-02-02T20:47:47.186Z,2.22
2023-02-02T20:48:47.221Z,2.22
2023-02-02T20:49:47.253Z,2.21
2023-02-02T20:50:47.290Z,2.21
2023-02-02T20:51:47.330Z,2.21
2023-02-02T20:52:47.370Z,2.21
2023-02-02T20:53:47.405Z,2.21
2023-02-02T20:54:47.461Z,2.21
2023-02-02T20:55:47.499Z,2.22
2023-02-02T20:56:47.514Z,2.23
2023-02-02T20:57:47.544Z,2.23
2023-02-02T20:58:47.579Z,2.25
2023-02-02T20:59:47.629Z,2.25
2023-02-02T21:00:47.676Z,2.24
2023-02-02T21:01:47.683Z,2.26
2023-02-02T21:02:47.715Z,2.26
2023-02-02T21:03:47.759Z,2.26
2023-02-02T21:04:47.789Z,2.26
2023-02-02T21:05:47.844Z,2.27
2023-02-02T21:06:47.864Z,2.27
2023-02-02T21:07:47.897Z,2.27
2023-02-02T21:08:47.924Z,2.27
2023-02-02T21:09:47.954Z,2.27
2023-02-02T21:10:48.001Z,2.28
2023-02-02T21:11:48.078Z,2.28
2023-02-02T21:12:51.475Z,2.28
2023-02-02T21:13:48.112Z,2.27